createdAt,value
2023-05-04T00:03:51.299Z,21.7
2023-05-04T00:23:55.387Z,21.6
2023-05-04T00:33:57.150Z,21.6
2023-05-04T00:43:59.544Z,21.5
2023-05-04T00:54:01.739Z,21.4
2023-05-04T01:14:06.182Z,21.5
2023-05-04T01:24:08.359Z,21.4
2023-05-04T01:44:13.029Z,21.4
2023-05-04T02:24:22.471Z,21.4
2023-05-04T02:34:24.879Z,21.4
2023-05-04T02:44:26.978Z,21.3
2023-05-04T03:04:30.934Z,21.4
2023-05-04T03:24:35.457Z,21.3
2023-05-04T03:34:37.847Z,21.4
2023-05-04T03:44:40.349Z,21.3
2023-05-04T04:04:44.411Z,21.2
2023-05-04T04:14:47.020Z,21.2
2023-05-04T04:24:49.003Z,21.3
2023-05-04T04:34:51.641Z,21.3
2023-05-04T04:44:54.269Z,21.4
2023-05-04T05:04:58.697Z,21.7
2023-05-04T05:15:00.760Z,21.8
2023-05-04T05:25:03.491Z,22
2023-05-04T05:35:05.682Z,21.7
2023-05-04T05:45:07.803Z,19.9
2023-05-04T05:55:09.638Z,18.6
2023-05-04T06:05:11.910Z,18.4
2023-05-04T06:15:14.026Z,19.3
2023-05-04T06:25:16.237Z,19.5
2023-05-04T06:35:18.600Z,19.2
2023-05-04T07:05:24.752Z,20
2023-05-04T07:15:27.447Z,19.7
2023-05-04T07:25:29.369Z,20
2023-05-04T07:35:32.019Z,20.5
2023-05-04T07:45:34.328Z,20.6
2023-05-04T07:55:36.725Z,20.8
2023-05-04T08:05:38.546Z,21.1
2023-05-04T08:15:41.057Z,21
2023-05-04T08:25:42.906Z,21.4
2023-05-04T08:35:44.953Z,21.6
2023-05-04T08:45:47.030Z,21.7
2023-05-04T09:05:51.690Z,22.9
2023-05-04T09:15:53.613Z,23.3
2023-05-04T09:25:55.485Z,23.5
2023-05-04T09:45:59.451Z,23.7
2023-05-04T09:56:03.014Z,23.8
2023-05-04T10:06:03.897Z,23.9
2023-05-04T10:26:07.657Z,24
2023-05-04T10:26:29.612Z,24
2023-05-04T10:46:19.984Z,24.2
2023-05-04T11:06:24.758Z,24.3
2023-05-04T11:26:29.023Z,24.3
2023-05-04T11:36:30.956Z,24.3
2023-05-04T11:46:33.705Z,24.3
2023-05-04T11:56:36.318Z,24.3
2023-05-04T12:16:40.704Z,24.4
2023-05-04T12:36:45.155Z,24.5
2023-05-04T12:46:46.933Z,24.5
2023-05-04T12:56:49.169Z,24.6
2023-05-04T13:06:51.804Z,24.8
2023-05-04T13:16:54.010Z,24.9
2023-05-04T13:26:56.050Z,27.1
2023-05-04T13:36:57.777Z,26.6
2023-05-04T13:46:59.908Z,26.3
2023-05-04T13:57:02.338Z,26.4
2023-05-04T14:07:04.638Z,26.6
2023-05-04T14:17:07.058Z,26.8
2023-05-04T14:37:11.262Z,29
2023-05-04T15:37:26.305Z,29
2023-05-04T15:47:28.465Z,28.2
2023-05-04T15:57:30.825Z,28
2023-05-04T16:07:33.036Z,27.8
2023-05-04T16:17:35.763Z,27.4
2023-05-04T16:27:38.107Z,27.3
2023-05-04T16:37:39.867Z,27.2
2023-05-04T16:47:42.551Z,27.2
2023-05-04T17:07:46.530Z,27.2
2023-05-04T17:17:48.877Z,27.2
2023-05-04T17:27:50.623Z,27.1
2023-05-04T17:37:55.299Z,27.1
2023-05-04T17:57:57.459Z,26.5
2023-05-04T18:07:59.308Z,26.2
2023-05-04T18:18:01.090Z,26
2023-05-04T18:28:02.806Z,25.7
2023-05-04T18:38:04.591Z,25.5
2023-05-04T18:48:06.612Z,25.3
2023-05-04T18:58:08.590Z,25.1
2023-05-04T19:08:10.286Z,25
2023-05-04T19:18:12.112Z,24.9
2023-05-04T19:28:13.958Z,24.7
2023-05-04T19:38:15.890Z,24.6
2023-05-04T19:58:20.570Z,24.3
2023-05-04T20:08:22.866Z,24.2
2023-05-04T20:18:24.936Z,24
2023-05-04T20:28:27.634Z,23.9
2023-05-04T20:38:29.524Z,23.9
2023-05-04T20:48:31.991Z,23.8
2023-05-04T21:08:35.552Z,23.6
2023-05-04T21:18:38.063Z,23.5
2023-05-04T21:28:40.631Z,23.4
2023-05-04T21:38:42.588Z,23.4
2023-05-04T21:48:44.742Z,23.3
2023-05-04T21:58:46.565Z,23.2
2023-05-04T22:08:48.703Z,23.2
2023-05-04T22:18:50.580Z,23.1
2023-05-04T22:28:52.650Z,23
2023-05-04T22:38:54.709Z,23
2023-05-04T22:48:56.466Z,23
2023-05-04T22:58:58.591Z,22.9
2023-05-04T23:09:01.200Z,22.9
2023-05-04T23:19:03.718Z,22.9
2023-05-04T23:29:05.657Z,22.8
2023-05-04T23:39:07.897Z,22.8
2023-05-04T23:59:12.006Z,22.7
